Terminal Aerodrome Forecast
Issued by NWS

Home | Current Version | Previous Version | Text Only | Print | Product List | Glossary On
Versions: 1 2 3 4 5 6 7 8 9 10 11 12 13 14 15 16 17 18 19 20 21
000
FTUS46 KPDT 182300 AAA
TAFDLS
TAF AMD
KDLS 182358Z 1900/1924 31008G18KT P6SM BKN080
     FM190600 30008KT P6SM FEW080 SCT120
     FM191600 31012G24KT P6SM FEW120=

USA.gov is the U.S. government's official web portal to all federal, state and local government web resources and services.